sensor_id;sensor_type;location;lat;lon;timestamp;pressure;altitude;pressure_sealevel;temperature;humidity
33697;BME280;20031;43.416;23.232;2023-02-13T00:01:14;102051.00;;;1.47;83.80
33697;BME280;20031;43.416;23.232;2023-02-13T00:03:40;102051.19;;;1.41;83.63
33697;BME280;20031;43.416;23.232;2023-02-13T00:06:05;102055.63;;;1.36;84.22
33697;BME280;20031;43.416;23.232;2023-02-13T00:08:31;102058.31;;;1.33;83.73
33697;BME280;20031;43.416;23.232;2023-02-13T00:10:56;102061.97;;;1.26;84.31
33697;BME280;20031;43.416;23.232;2023-02-13T00:13:22;102061.31;;;1.21;83.59
33697;BME280;20031;43.416;23.232;2023-02-13T00:15:57;102076.03;;;1.14;83.74
33697;BME280;20031;43.416;23.232;2023-02-13T00:18:23;102067.72;;;1.08;83.91
33697;BME280;20031;43.416;23.232;2023-02-13T00:23:24;102078.25;;;0.99;84.04
33697;BME280;20031;43.416;23.232;2023-02-13T00:25:50;102082.63;;;0.97;84.01
33697;BME280;20031;43.416;23.232;2023-02-13T00:28:15;102083.59;;;0.93;84.30
33697;BME280;20031;43.416;23.232;2023-02-13T00:30:41;102080.44;;;0.85;84.48
33697;BME280;20031;43.416;23.232;2023-02-13T00:33:06;102084.00;;;0.81;84.31
33697;BME280;20031;43.416;23.232;2023-02-13T00:35:31;102093.44;;;0.79;84.72
33697;BME280;20031;43.416;23.232;2023-02-13T00:37:57;102089.31;;;0.75;84.36
33697;BME280;20031;43.416;23.232;2023-02-13T00:40:23;102091.97;;;0.72;84.38
33697;BME280;20031;43.416;23.232;2023-02-13T00:42:48;102093.88;;;0.66;84.71
33697;BME280;20031;43.416;23.232;2023-02-13T00:45:14;102095.72;;;0.62;84.42
33697;BME280;20031;43.416;23.232;2023-02-13T00:47:39;102106.06;;;0.58;84.80
33697;BME280;20031;43.416;23.232;2023-02-13T00:50:05;102106.16;;;0.55;84.53
33697;BME280;20031;43.416;23.232;2023-02-13T00:52:30;102107.28;;;0.47;84.57
33697;BME280;20031;43.416;23.232;2023-02-13T00:54:56;102107.47;;;0.41;84.36
33697;BME280;20031;43.416;23.232;2023-02-13T00:57:21;102111.00;;;0.37;84.44
33697;BME280;20031;43.416;23.232;2023-02-13T00:59:47;102107.66;;;0.35;84.45
33697;BME280;20031;43.416;23.232;2023-02-13T01:02:12;102098.38;;;0.31;84.93
33697;BME280;20031;43.416;23.232;2023-02-13T01:04:37;102103.50;;;0.31;84.87
33697;BME280;20031;43.416;23.232;2023-02-13T01:07:03;102099.25;;;0.30;85.32
33697;BME280;20031;43.416;23.232;2023-02-13T01:09:28;102092.56;;;0.26;85.43
33697;BME280;20031;43.416;23.232;2023-02-13T01:11:54;102090.97;;;0.22;85.05
33697;BME280;20031;43.416;23.232;2023-02-13T01:14:19;102097.81;;;0.21;84.83
33697;BME280;20031;43.416;23.232;2023-02-13T01:16:45;102091.84;;;0.21;85.48
33697;BME280;20031;43.416;23.232;2023-02-13T01:19:10;102086.72;;;0.21;85.25
33697;BME280;20031;43.416;23.232;2023-02-13T01:21:36;102081.63;;;0.19;85.35
33697;BME280;20031;43.416;23.232;2023-02-13T01:24:03;102084.19;;;0.19;85.24
33697;BME280;20031;43.416;23.232;2023-02-13T01:26:29;102086.13;;;0.13;85.53
33697;BME280;20031;43.416;23.232;2023-02-13T01:28:54;102082.84;;;0.08;84.91
33697;BME280;20031;43.416;23.232;2023-02-13T01:31:21;102088.88;;;0.05;85.16
33697;BME280;20031;43.416;23.232;2023-02-13T01:33:47;102084.63;;;0.06;85.58
33697;BME280;20031;43.416;23.232;2023-02-13T01:36:12;102092.44;;;0.01;85.41
33697;BME280;20031;43.416;23.232;2023-02-13T01:38:39;102089.88;;;0.01;85.51
33697;BME280;20031;43.416;23.232;2023-02-13T01:41:05;102091.56;;;0.01;85.72
33697;BME280;20031;43.416;23.232;2023-02-13T01:43:56;102093.34;;;-0.01;85.82
33697;BME280;20031;43.416;23.232;2023-02-13T01:46:37;102088.22;;;-0.01;85.33
33697;BME280;20031;43.416;23.232;2023-02-13T01:49:22;102086.53;;;-0.02;85.57
33697;BME280;20031;43.416;23.232;2023-02-13T01:51:52;102088.22;;;-0.01;85.41
33697;BME280;20031;43.416;23.232;2023-02-13T01:54:22;102086.44;;;0.01;85.31
33697;BME280;20031;43.416;23.232;2023-02-13T01:56:57;102098.38;;;0.02;85.37
33697;BME280;20031;43.416;23.232;2023-02-13T01:59:28;102086.44;;;0.01;85.53
33697;BME280;20031;43.416;23.232;2023-02-13T02:01:56;102089.81;;;0.03;85.50
33697;BME280;20031;43.416;23.232;2023-02-13T02:04:27;102090.66;;;0.03;86.10
33697;BME280;20031;43.416;23.232;2023-02-13T02:06:57;102083.09;;;-0.01;85.75
33697;BME280;20031;43.416;23.232;2023-02-13T02:09:29;102086.53;;;-0.02;85.84
33697;BME280;20031;43.416;23.232;2023-02-13T02:12:10;102088.34;;;-0.05;85.66
33697;BME280;20031;43.416;23.232;2023-02-13T02:14:39;102090.16;;;-0.09;85.54
33697;BME280;20031;43.416;23.232;2023-02-13T02:17:05;102092.78;;;-0.12;85.89
33697;BME280;20031;43.416;23.232;2023-02-13T02:44:16;102093.38;;;-0.33;86.13
33697;BME280;20031;43.416;23.232;2023-02-13T02:47:01;102092.63;;;-0.36;86.12
33697;BME280;20031;43.416;23.232;2023-02-13T02:55:30;102089.38;;;-0.43;86.11
33697;BME280;20031;43.416;23.232;2023-02-13T02:58:20;102080.13;;;-0.47;85.95
33697;BME280;20031;43.416;23.232;2023-02-13T03:01:10;102073.41;;;-0.51;85.91
33697;BME280;20031;43.416;23.232;2023-02-13T03:03:56;102077.69;;;-0.52;85.97
33697;BME280;20031;43.416;23.232;2023-02-13T03:06:56;102076.16;;;-0.58;86.08
33697;BME280;20031;43.416;23.232;2023-02-13T03:09:36;102088.00;;;-0.55;86.95
33697;BME280;20031;43.416;23.232;2023-02-13T03:12:26;102084.63;;;-0.56;86.15
33697;BME280;20031;43.416;23.232;2023-02-13T03:15:12;102093.22;;;-0.58;86.44
33697;BME280;20031;43.416;23.232;2023-02-13T03:17:37;102082.16;;;-0.59;86.37
33697;BME280;20031;43.416;23.232;2023-02-13T03:20:31;102087.34;;;-0.62;85.97
33697;BME280;20031;43.416;23.232;2023-02-13T03:28:31;102085.03;;;-0.71;86.70
33697;BME280;20031;43.416;23.232;2023-02-13T03:32:05;102084.31;;;-0.76;86.29
33697;BME280;20031;43.416;23.232;2023-02-13T03:34:33;102081.78;;;-0.77;86.41
33697;BME280;20031;43.416;23.232;2023-02-13T03:37:30;102082.69;;;-0.80;86.81
33697;BME280;20031;43.416;23.232;2023-02-13T03:43:03;102081.94;;;-0.83;86.28
33697;BME280;20031;43.416;23.232;2023-02-13T03:45:36;102081.19;;;-0.88;86.41
33697;BME280;20031;43.416;23.232;2023-02-13T03:48:25;102092.25;;;-0.86;86.39
33697;BME280;20031;43.416;23.232;2023-02-13T03:51:16;102090.63;;;-0.90;86.83
33697;BME280;20031;43.416;23.232;2023-02-13T03:53:46;102092.38;;;-0.92;86.36
33697;BME280;20031;43.416;23.232;2023-02-13T03:56:17;102087.41;;;-0.98;86.48
33697;BME280;20031;43.416;23.232;2023-02-13T03:59:02;102081.47;;;-0.99;87.02
33697;BME280;20031;43.416;23.232;2023-02-13T04:02:00;102078.06;;;-0.98;86.69
33697;BME280;20031;43.416;23.232;2023-02-13T04:07:13;102095.94;;;-0.98;86.77
33697;BME280;20031;43.416;23.232;2023-02-13T04:09:57;102084.00;;;-0.97;87.22
33697;BME280;20031;43.416;23.232;2023-02-13T04:12:47;102091.69;;;-0.99;86.50
33697;BME280;20031;43.416;23.232;2023-02-13T04:15:45;102093.50;;;-1.03;86.95
33697;BME280;20031;43.416;23.232;2023-02-13T04:18:26;102095.31;;;-1.07;87.05
33697;BME280;20031;43.416;23.232;2023-02-13T04:20:53;102089.41;;;-1.09;87.17
33697;BME280;20031;43.416;23.232;2023-02-13T04:23:19;102097.03;;;-1.07;87.26
33697;BME280;20031;43.416;23.232;2023-02-13T04:25:47;102091.94;;;-1.07;87.06
33697;BME280;20031;43.416;23.232;2023-02-13T04:28:14;102096.19;;;-1.08;86.95
33697;BME280;20031;43.416;23.232;2023-02-13T04:30:40;102099.59;;;-1.07;86.98
33697;BME280;20031;43.416;23.232;2023-02-13T04:33:06;102095.34;;;-1.08;87.54
33697;BME280;20031;43.416;23.232;2023-02-13T04:35:31;102097.03;;;-1.07;87.45
33697;BME280;20031;43.416;23.232;2023-02-13T04:37:57;102091.06;;;-1.08;87.83
33697;BME280;20031;43.416;23.232;2023-02-13T04:40:22;102091.09;;;-1.09;86.97
33697;BME280;20031;43.416;23.232;2023-02-13T04:42:48;102101.44;;;-1.14;86.74
33697;BME280;20031;43.416;23.232;2023-02-13T04:45:14;102099.75;;;-1.15;87.12
33697;BME280;20031;43.416;23.232;2023-02-13T04:47:39;102098.88;;;-1.14;87.73
33697;BME280;20031;43.416;23.232;2023-02-13T04:50:05;102099.69;;;-1.12;87.58
33697;BME280;20031;43.416;23.232;2023-02-13T04:52:31;102097.97;;;-1.11;87.66
33697;BME280;20031;43.416;23.232;2023-02-13T04:54:57;102107.34;;;-1.10;87.90
33697;BME280;20031;43.416;23.232;2023-02-13T04:57:22;102103.88;;;-1.09;87.48
33697;BME280;20031;43.416;23.232;2023-02-13T04:59:47;102109.00;;;-1.09;87.78
33697;BME280;20031;43.416;23.232;2023-02-13T05:02:13;102111.53;;;-1.09;87.39
33697;BME280;20031;43.416;23.232;2023-02-13T05:04:38;102111.66;;;-1.14;87.61
33697;BME280;20031;43.416;23.232;2023-02-13T05:07:04;102115.94;;;-1.14;87.62
33697;BME280;20031;43.416;23.232;2023-02-13T05:09:29;102112.44;;;-1.12;87.75
33697;BME280;20031;43.416;23.232;2023-02-13T05:11:55;102115.00;;;-1.12;87.34
33697;BME280;20031;43.416;23.232;2023-02-13T05:14:20;102119.25;;;-1.11;87.74
33697;BME280;20031;43.416;23.232;2023-02-13T05:16:46;102120.13;;;-1.10;87.71
33697;BME280;20031;43.416;23.232;2023-02-13T05:19:12;102122.75;;;-1.15;86.97
33697;BME280;20031;43.416;23.232;2023-02-13T05:21:37;102126.97;;;-1.12;87.62
33697;BME280;20031;43.416;23.232;2023-02-13T05:24:21;102124.41;;;-1.12;87.71
33697;BME280;20031;43.416;23.232;2023-02-13T05:26:47;102121.91;;;-1.15;87.00
33697;BME280;20031;43.416;23.232;2023-02-13T05:29:12;102116.91;;;-1.20;87.19
33697;BME280;20031;43.416;23.232;2023-02-13T05:31:55;102129.81;;;-1.24;86.92
33697;BME280;20031;43.416;23.232;2023-02-13T05:34:23;102138.28;;;-1.24;87.07
33697;BME280;20031;43.416;23.232;2023-02-13T05:36:49;102132.28;;;-1.21;87.74
33697;BME280;20031;43.416;23.232;2023-02-13T05:39:15;102135.63;;;-1.19;87.13
33697;BME280;20031;43.416;23.232;2023-02-13T05:41:44;102137.22;;;-1.14;88.07
33697;BME280;20031;43.416;23.232;2023-02-13T05:44:11;102140.47;;;-1.07;87.67
33697;BME280;20031;43.416;23.232;2023-02-13T05:46:38;102132.72;;;-1.03;87.65
33697;BME280;20031;43.416;23.232;2023-02-13T05:49:04;102140.31;;;-1.00;87.51
33697;BME280;20031;43.416;23.232;2023-02-13T05:51:30;102136.72;;;-0.93;87.57
33697;BME280;20031;43.416;23.232;2023-02-13T05:53:55;102145.03;;;-0.85;87.39
33697;BME280;20031;43.416;23.232;2023-02-13T05:56:21;102141.47;;;-0.78;87.82
33697;BME280;20031;43.416;23.232;2023-02-13T05:58:50;102140.34;;;-0.68;87.65
33697;BME280;20031;43.416;23.232;2023-02-13T06:01:15;102141.81;;;-0.58;87.69
33697;BME280;20031;43.416;23.232;2023-02-13T06:03:41;102147.56;;;-0.49;87.39
33697;BME280;20031;43.416;23.232;2023-02-13T06:06:06;102146.41;;;-0.38;87.45
33697;BME280;20031;43.416;23.232;2023-02-13T06:08:32;102152.00;;;-0.24;87.60
33697;BME280;20031;43.416;23.232;2023-02-13T06:10:57;102150.84;;;-0.12;87.48
33697;BME280;20031;43.416;23.232;2023-02-13T06:13:23;102151.34;;;0.00;87.14
33697;BME280;20031;43.416;23.232;2023-02-13T06:15:48;102146.72;;;0.12;87.53
33697;BME280;20031;43.416;23.232;2023-02-13T06:18:15;102137.84;;;0.24;87.53
33697;BME280;20031;43.416;23.232;2023-02-13T06:20:41;102142.38;;;0.45;87.65
33697;BME280;20031;43.416;23.232;2023-02-13T06:23:06;102135.63;;;0.69;87.68
33697;BME280;20031;43.416;23.232;2023-02-13T06:25:34;102141.84;;;0.90;87.26
33697;BME280;20031;43.416;23.232;2023-02-13T06:28:00;102134.41;;;1.08;87.19
33697;BME280;20031;43.416;23.232;2023-02-13T06:30:25;102130.38;;;1.27;86.43
33697;BME280;20031;43.416;23.232;2023-02-13T06:32:50;102136.00;;;1.38;85.76
33697;BME280;20031;43.416;23.232;2023-02-13T06:35:16;102132.91;;;1.52;85.50
33697;BME280;20031;43.416;23.232;2023-02-13T06:37:42;102135.91;;;1.65;83.93
33697;BME280;20031;43.416;23.232;2023-02-13T06:40:12;102137.09;;;1.79;83.74
33697;BME280;20031;43.416;23.232;2023-02-13T06:42:38;102136.78;;;1.88;82.25
33697;BME280;20031;43.416;23.232;2023-02-13T06:45:04;102134.63;;;2.01;82.26
33697;BME280;20031;43.416;23.232;2023-02-13T06:47:30;102131.78;;;2.08;81.13
33697;BME280;20031;43.416;23.232;2023-02-13T06:49:55;102133.19;;;2.16;80.30
33697;BME280;20031;43.416;23.232;2023-02-13T06:52:21;102140.28;;;2.33;80.08
33697;BME280;20031;43.416;23.232;2023-02-13T06:54:46;102133.91;;;2.43;79.36
33697;BME280;20031;43.416;23.232;2023-02-13T06:57:12;102141.09;;;2.56;78.73
33697;BME280;20031;43.416;23.232;2023-02-13T06:59:37;102136.59;;;2.62;77.75
33697;BME280;20031;43.416;23.232;2023-02-13T07:02:03;102136.91;;;2.76;77.70
33697;BME280;20031;43.416;23.232;2023-02-13T07:04:28;102135.03;;;3.01;77.51
33697;BME280;20031;43.416;23.232;2023-02-13T07:06:54;102137.78;;;3.18;76.77
33697;BME280;20031;43.416;23.232;2023-02-13T07:09:22;102139.84;;;3.30;76.34
33697;BME280;20031;43.416;23.232;2023-02-13T07:11:47;102148.88;;;3.40;75.54
33697;BME280;20031;43.416;23.232;2023-02-13T07:14:13;102144.38;;;3.45;75.06
33697;BME280;20031;43.416;23.232;2023-02-13T07:16:38;102145.69;;;3.54;74.99
33697;BME280;20031;43.416;23.232;2023-02-13T07:19:04;102148.31;;;3.53;73.84
33697;BME280;20031;43.416;23.232;2023-02-13T07:21:29;102155.25;;;3.51;73.70
33697;BME280;20031;43.416;23.232;2023-02-13T07:23:55;102146.38;;;3.58;73.97
33697;BME280;20031;43.416;23.232;2023-02-13T07:26:20;102143.94;;;3.75;74.17
33697;BME280;20031;43.416;23.232;2023-02-13T07:28:46;102140.00;;;3.86;73.30
33697;BME280;20031;43.416;23.232;2023-02-13T07:31:11;102142.91;;;3.99;72.66
33697;BME280;20031;43.416;23.232;2023-02-13T07:33:37;102142.63;;;4.04;72.55
33697;BME280;20031;43.416;23.232;2023-02-13T07:36:03;102132.56;;;4.37;72.99
33697;BME280;20031;43.416;23.232;2023-02-13T07:38:32;102128.59;;;4.48;71.20
33697;BME280;20031;43.416;23.232;2023-02-13T07:41:02;102136.69;;;4.41;71.45
33697;BME280;20031;43.416;23.232;2023-02-13T07:43:28;102133.75;;;4.48;70.45
33697;BME280;20031;43.416;23.232;2023-02-13T07:45:56;102136.69;;;4.77;70.94
33697;BME280;20031;43.416;23.232;2023-02-13T07:48:23;102138.41;;;4.95;69.54
33697;BME280;20031;43.416;23.232;2023-02-13T07:50:51;102137.06;;;5.22;69.74
33697;BME280;20031;43.416;23.232;2023-02-13T07:53:16;102140.97;;;5.47;68.78
33697;BME280;20031;43.416;23.232;2023-02-13T07:55:42;102132.47;;;5.79;68.06
33697;BME280;20031;43.416;23.232;2023-02-13T07:58:07;102127.91;;;6.16;67.59
33697;BME280;20031;43.416;23.232;2023-02-13T08:00:33;102129.25;;;6.23;65.55
33697;BME280;20031;43.416;23.232;2023-02-13T08:02:59;102127.28;;;6.28;65.56
33697;BME280;20031;43.416;23.232;2023-02-13T08:05:25;102126.91;;;6.51;65.04
33697;BME280;20031;43.416;23.232;2023-02-13T08:07:51;102128.06;;;6.60;64.09
33697;BME280;20031;43.416;23.232;2023-02-13T08:10:17;102132.56;;;6.72;63.26
33697;BME280;20031;43.416;23.232;2023-02-13T08:13:01;102125.06;;;6.68;62.69
33697;BME280;20031;43.416;23.232;2023-02-13T08:15:26;102122.81;;;6.77;61.63
33697;BME280;20031;43.416;23.232;2023-02-13T08:17:52;102128.72;;;6.95;61.61
33697;BME280;20031;43.416;23.232;2023-02-13T08:20:18;102118.16;;;7.13;61.27
33697;BME280;20031;43.416;23.232;2023-02-13T08:22:43;102126.56;;;7.32;59.46
33697;BME280;20031;43.416;23.232;2023-02-13T08:25:08;102125.75;;;7.16;58.68
33697;BME280;20031;43.416;23.232;2023-02-13T08:27:34;102120.38;;;7.34;58.73
33697;BME280;20031;43.416;23.232;2023-02-13T08:29:59;102122.38;;;7.59;58.17
33697;BME280;20031;43.416;23.232;2023-02-13T08:32:26;102118.28;;;7.84;57.07
33697;BME280;20031;43.416;23.232;2023-02-13T08:34:51;102123.00;;;8.05;57.11
33697;BME280;20031;43.416;23.232;2023-02-13T08:37:17;102114.97;;;8.23;56.51
33697;BME280;20031;43.416;23.232;2023-02-13T08:39:42;102122.81;;;8.50;56.65
33697;BME280;20031;43.416;23.232;2023-02-13T08:42:08;102117.81;;;8.61;55.58
33697;BME280;20031;43.416;23.232;2023-02-13T08:44:34;102118.00;;;8.58;55.18
33697;BME280;20031;43.416;23.232;2023-02-13T08:46:59;102111.56;;;8.77;55.30
33697;BME280;20031;43.416;23.232;2023-02-13T08:49:29;102120.53;;;8.85;54.19
33697;BME280;20031;43.416;23.232;2023-02-13T08:51:55;102119.50;;;8.88;53.57
33697;BME280;20031;43.416;23.232;2023-02-13T08:54:20;102113.72;;;8.97;53.45
33697;BME280;20031;43.416;23.232;2023-02-13T08:56:46;102113.38;;;9.15;53.18
33697;BME280;20031;43.416;23.232;2023-02-13T08:59:11;102110.91;;;9.26;52.65
33697;BME280;20031;43.416;23.232;2023-02-13T09:01:37;102101.91;;;9.44;52.80
33697;BME280;20031;43.416;23.232;2023-02-13T09:04:03;102105.34;;;9.57;52.39
33697;BME280;20031;43.416;23.232;2023-02-13T09:06:28;102098.88;;;9.50;51.77
33697;BME280;20031;43.416;23.232;2023-02-13T09:08:54;102095.38;;;9.75;52.25
33697;BME280;20031;43.416;23.232;2023-02-13T09:11:20;102099.28;;;9.95;51.91
33697;BME280;20031;43.416;23.232;2023-02-13T09:13:51;102094.66;;;9.86;51.13
33697;BME280;20031;43.416;23.232;2023-02-13T09:16:17;102094.97;;;9.94;51.31
33697;BME280;20031;43.416;23.232;2023-02-13T09:18:45;102092.81;;;10.00;50.84
33697;BME280;20031;43.416;23.232;2023-02-13T09:21:11;102090.81;;;10.16;51.10
33697;BME280;20031;43.416;23.232;2023-02-13T09:23:39;102086.56;;;10.51;51.06
33697;BME280;20031;43.416;23.232;2023-02-13T09:26:07;102082.78;;;10.67;50.28
33697;BME280;20031;43.416;23.232;2023-02-13T09:28:33;102080.84;;;10.81;50.01
33697;BME280;20031;43.416;23.232;2023-02-13T09:30:59;102084.09;;;10.96;48.58
33697;BME280;20031;43.416;23.232;2023-02-13T09:33:28;102077.38;;;11.04;47.09
33697;BME280;20031;43.416;23.232;2023-02-13T09:35:54;102080.94;;;11.03;46.44
33697;BME280;20031;43.416;23.232;2023-02-13T09:38:19;102086.88;;;11.05;46.03
33697;BME280;20031;43.416;23.232;2023-02-13T09:41:04;102074.31;;;10.99;45.84
33697;BME280;20031;43.416;23.232;2023-02-13T09:48:54;102061.16;;;11.35;44.39
33697;BME280;20031;43.416;23.232;2023-02-13T09:51:21;102057.59;;;11.36;44.20
33697;BME280;20031;43.416;23.232;2023-02-13T09:54:16;102053.22;;;11.36;43.76
33697;BME280;20031;43.416;23.232;2023-02-13T10:08:44;102030.91;;;11.32;44.06
33697;BME280;20031;43.416;23.232;2023-02-13T10:16:49;102023.94;;;11.44;44.86
33697;BME280;20031;43.416;23.232;2023-02-13T10:22:01;102007.94;;;11.48;43.97
33697;BME280;20031;43.416;23.232;2023-02-13T10:24:41;102017.50;;;11.26;43.76
33697;BME280;20031;43.416;23.232;2023-02-13T10:27:27;102007.13;;;11.48;44.33
33697;BME280;20031;43.416;23.232;2023-02-13T10:30:24;102003.94;;;11.55;44.13
33697;BME280;20031;43.416;23.232;2023-02-13T10:38:17;102004.03;;;11.54;42.83
33697;BME280;20031;43.416;23.232;2023-02-13T10:51:52;102000.72;;;11.63;42.43
33697;BME280;20031;43.416;23.232;2023-02-13T10:57:26;101990.41;;;11.61;43.89
33697;BME280;20031;43.416;23.232;2023-02-13T11:00:22;101996.00;;;11.68;43.63
33697;BME280;20031;43.416;23.232;2023-02-13T11:02:49;101994.47;;;11.76;43.99
33697;BME280;20031;43.416;23.232;2023-02-13T11:05:21;101983.66;;;11.70;43.62
33697;BME280;20031;43.416;23.232;2023-02-13T11:07:48;101980.56;;;11.86;43.66
33697;BME280;20031;43.416;23.232;2023-02-13T11:10:22;101984.13;;;11.85;43.53
33697;BME280;20031;43.416;23.232;2023-02-13T11:12:49;101981.06;;;11.91;41.76
33697;BME280;20031;43.416;23.232;2023-02-13T11:15:31;101975.59;;;11.83;41.43
33697;BME280;20031;43.416;23.232;2023-02-13T11:18:12;101970.94;;;11.98;41.83
33697;BME280;20031;43.416;23.232;2023-02-13T11:20:41;101971.44;;;12.03;41.77
33697;BME280;20031;43.416;23.232;2023-02-13T11:25:59;101964.19;;;11.73;41.28
33697;BME280;20031;43.416;23.232;2023-02-13T11:28:27;101957.09;;;11.65;41.29
33697;BME280;20031;43.416;23.232;2023-02-13T11:31:11;101954.00;;;11.71;41.06
33697;BME280;20031;43.416;23.232;2023-02-13T11:33:37;101958.16;;;11.62;41.07
33697;BME280;20031;43.416;23.232;2023-02-13T11:36:10;101953.34;;;11.34;42.16
33697;BME280;20031;43.416;23.232;2023-02-13T11:38:37;101952.28;;;11.37;42.37
33697;BME280;20031;43.416;23.232;2023-02-13T11:41:12;101946.13;;;11.27;42.41
33697;BME280;20031;43.416;23.232;2023-02-13T11:43:50;101943.84;;;11.22;43.24
33697;BME280;20031;43.416;23.232;2023-02-13T11:46:24;101943.75;;;11.24;42.94
33697;BME280;20031;43.416;23.232;2023-02-13T11:49:12;101941.75;;;11.27;43.06
33697;BME280;20031;43.416;23.232;2023-02-13T11:51:44;101931.53;;;11.14;43.21
33697;BME280;20031;43.416;23.232;2023-02-13T11:54:43;101939.78;;;10.97;43.69
33697;BME280;20031;43.416;23.232;2023-02-13T11:59:42;101927.09;;;10.92;43.86
33697;BME280;20031;43.416;23.232;2023-02-13T12:04:40;101919.63;;;10.88;43.34
33697;BME280;20031;43.416;23.232;2023-02-13T12:07:14;101915.00;;;10.91;43.74
33697;BME280;20031;43.416;23.232;2023-02-13T12:09:43;101903.84;;;10.78;43.22
33697;BME280;20031;43.416;23.232;2023-02-13T12:12:17;101899.31;;;10.69;43.00
33697;BME280;20031;43.416;23.232;2023-02-13T12:14:44;101898.34;;;10.60;43.02
33697;BME280;20031;43.416;23.232;2023-02-13T12:17:20;101895.22;;;10.55;43.71
33697;BME280;20031;43.416;23.232;2023-02-13T12:19:48;101889.09;;;10.32;43.42
33697;BME280;20031;43.416;23.232;2023-02-13T12:35:50;101858.59;;;10.11;45.53
33697;BME280;20031;43.416;23.232;2023-02-13T12:38:23;101861.53;;;10.07;45.63
33697;BME280;20031;43.416;23.232;2023-02-13T12:46:33;101845.03;;;9.95;45.79
33697;BME280;20031;43.416;23.232;2023-02-13T13:06:00;101812.56;;;9.65;47.41
33697;BME280;20031;43.416;23.232;2023-02-13T13:14:15;101815.94;;;9.55;47.46
33697;BME280;20031;43.416;23.232;2023-02-13T13:27:20;101805.56;;;9.42;48.23
33697;BME280;20031;43.416;23.232;2023-02-13T13:29:54;101798.59;;;9.43;48.30
33697;BME280;20031;43.416;23.232;2023-02-13T13:32:23;101808.28;;;9.41;47.90
33697;BME280;20031;43.416;23.232;2023-02-13T13:34:48;101804.22;;;9.37;48.21
33697;BME280;20031;43.416;23.232;2023-02-13T13:42:50;101799.25;;;9.34;48.59
33697;BME280;20031;43.416;23.232;2023-02-13T13:48:30;101799.94;;;9.36;49.06
33697;BME280;20031;43.416;23.232;2023-02-13T13:51:01;101796.66;;;9.34;49.35
33697;BME280;20031;43.416;23.232;2023-02-13T13:53:27;101799.34;;;9.32;49.63
33697;BME280;20031;43.416;23.232;2023-02-13T14:03:44;101788.19;;;9.43;48.68
33697;BME280;20031;43.416;23.232;2023-02-13T14:06:12;101786.09;;;9.48;48.31
33697;BME280;20031;43.416;23.232;2023-02-13T14:11:43;101795.72;;;9.58;48.18
33697;BME280;20031;43.416;23.232;2023-02-13T14:16:52;101797.06;;;9.64;47.77
33697;BME280;20031;43.416;23.232;2023-02-13T14:19:28;101795.28;;;9.64;47.58
33697;BME280;20031;43.416;23.232;2023-02-13T14:24:52;101785.72;;;9.65;47.44
33697;BME280;20031;43.416;23.232;2023-02-13T14:27:23;101784.75;;;9.65;46.94
33697;BME280;20031;43.416;23.232;2023-02-13T14:29:49;101785.81;;;9.63;47.14
33697;BME280;20031;43.416;23.232;2023-02-13T14:32:22;101782.50;;;9.61;47.47
33697;BME280;20031;43.416;23.232;2023-02-13T14:35:04;101782.38;;;9.63;47.13
33697;BME280;20031;43.416;23.232;2023-02-13T14:37:37;101781.78;;;9.59;47.13
33697;BME280;20031;43.416;23.232;2023-02-13T14:42:41;101773.88;;;9.61;46.98
33697;BME280;20031;43.416;23.232;2023-02-13T14:45:17;101772.91;;;9.62;47.26
33697;BME280;20031;43.416;23.232;2023-02-13T14:47:46;101769.13;;;9.55;46.95
33697;BME280;20031;43.416;23.232;2023-02-13T14:50:45;101765.31;;;9.48;47.13
33697;BME280;20031;43.416;23.232;2023-02-13T14:53:22;101768.00;;;9.46;47.10
33697;BME280;20031;43.416;23.232;2023-02-13T14:56:03;101763.97;;;9.42;46.76
33697;BME280;20031;43.416;23.232;2023-02-13T14:58:32;101760.25;;;9.34;46.91
33697;BME280;20031;43.416;23.232;2023-02-13T15:01:16;101767.03;;;9.24;47.28
33697;BME280;20031;43.416;23.232;2023-02-13T15:03:47;101765.28;;;9.12;47.11
33697;BME280;20031;43.416;23.232;2023-02-13T15:06:22;101766.16;;;9.00;47.28
33697;BME280;20031;43.416;23.232;2023-02-13T15:08:50;101762.97;;;8.84;47.44
33697;BME280;20031;43.416;23.232;2023-02-13T15:11:39;101765.06;;;8.67;47.51
33697;BME280;20031;43.416;23.232;2023-02-13T15:16:42;101760.97;;;8.38;48.10
33697;BME280;20031;43.416;23.232;2023-02-13T15:19:17;101762.13;;;8.22;48.38
33697;BME280;20031;43.416;23.232;2023-02-13T15:22:01;101761.47;;;8.06;48.42
33697;BME280;20031;43.416;23.232;2023-02-13T15:24:46;101759.34;;;7.86;48.73
33697;BME280;20031;43.416;23.232;2023-02-13T15:27:19;101756.91;;;7.71;49.41
33697;BME280;20031;43.416;23.232;2023-02-13T15:29:53;101764.00;;;7.55;49.70
33697;BME280;20031;43.416;23.232;2023-02-13T15:32:24;101758.03;;;7.41;50.37
33697;BME280;20031;43.416;23.232;2023-02-13T15:34:50;101753.69;;;7.27;51.02
33697;BME280;20031;43.416;23.232;2023-02-13T15:37:21;101765.03;;;7.12;51.08
33697;BME280;20031;43.416;23.232;2023-02-13T15:39:46;101753.22;;;6.95;51.94
33697;BME280;20031;43.416;23.232;2023-02-13T15:42:12;101765.34;;;6.80;52.26
33697;BME280;20031;43.416;23.232;2023-02-13T15:44:38;101763.75;;;6.64;52.85
33697;BME280;20031;43.416;23.232;2023-02-13T15:47:18;101758.50;;;6.52;53.82
33697;BME280;20031;43.416;23.232;2023-02-13T15:49:46;101761.88;;;6.38;54.43
33697;BME280;20031;43.416;23.232;2023-02-13T15:52:22;101758.34;;;6.25;54.96
33697;BME280;20031;43.416;23.232;2023-02-13T15:54:51;101756.50;;;6.13;55.71
33697;BME280;20031;43.416;23.232;2023-02-13T15:57:17;101753.06;;;5.99;56.05
33697;BME280;20031;43.416;23.232;2023-02-13T15:59:43;101757.22;;;5.86;56.06
33697;BME280;20031;43.416;23.232;2023-02-13T16:04:44;101756.94;;;5.77;57.72